sensor_id;sensor_type;location;lat;lon;timestamp;P1;durP1;ratioP1;P2;durP2;ratioP2
66384;SDS011;53426;55.872;37.462;2024-03-06T00:00:50;3.30;;;2.13;;
66384;SDS011;53426;55.872;37.462;2024-03-06T00:03:16;2.15;;;2.00;;
66384;SDS011;53426;55.872;37.462;2024-03-06T00:05:41;4.28;;;2.22;;
66384;SDS011;53426;55.872;37.462;2024-03-06T00:08:07;4.05;;;2.42;;
66384;SDS011;53426;55.872;37.462;2024-03-06T00:10:33;3.15;;;2.03;;
66384;SDS011;53426;55.872;37.462;2024-03-06T00:12:59;5.50;;;2.63;;
66384;SDS011;53426;55.872;37.462;2024-03-06T00:15:28;2.97;;;2.13;;
66384;SDS011;53426;55.872;37.462;2024-03-06T00:18:01;2.90;;;1.75;;
66384;SDS011;53426;55.872;37.462;2024-03-06T00:20:29;3.92;;;2.17;;
66384;SDS011;53426;55.872;37.462;2024-03-06T00:22:55;4.03;;;2.03;;
66384;SDS011;53426;55.872;37.462;2024-03-06T00:25:21;1.98;;;1.80;;
66384;SDS011;53426;55.872;37.462;2024-03-06T00:27:50;3.50;;;2.00;;
66384;SDS011;53426;55.872;37.462;2024-03-06T00:30:16;2.47;;;1.98;;
66384;SDS011;53426;55.872;37.462;2024-03-06T00:32:45;2.15;;;2.00;;
66384;SDS011;53426;55.872;37.462;2024-03-06T00:35:17;2.28;;;2.08;;
66384;SDS011;53426;55.872;37.462;2024-03-06T00:37:43;2.25;;;2.05;;
66384;SDS011;53426;55.872;37.462;2024-03-06T00:40:09;2.42;;;1.80;;
66384;SDS011;53426;55.872;37.462;2024-03-06T00:42:37;1.77;;;1.67;;
66384;SDS011;53426;55.872;37.462;2024-03-06T00:45:10;3.33;;;2.33;;
66384;SDS011;53426;55.872;37.462;2024-03-06T00:47:38;3.03;;;2.13;;
66384;SDS011;53426;55.872;37.462;2024-03-06T01:04:55;3.20;;;2.55;;
66384;SDS011;53426;55.872;37.462;2024-03-06T01:07:21;4.90;;;2.40;;
66384;SDS011;53426;55.872;37.462;2024-03-06T01:09:47;2.88;;;2.50;;
66384;SDS011;53426;55.872;37.462;2024-03-06T01:12:14;2.72;;;2.53;;
66384;SDS011;53426;55.872;37.462;2024-03-06T01:18:04;6.03;;;2.80;;
66384;SDS011;53426;55.872;37.462;2024-03-06T01:20:32;6.03;;;2.25;;
66384;SDS011;53426;55.872;37.462;2024-03-06T01:22:58;2.88;;;2.42;;
66384;SDS011;53426;55.872;37.462;2024-03-06T01:25:24;2.50;;;2.20;;
66384;SDS011;53426;55.872;37.462;2024-03-06T01:27:55;3.42;;;2.38;;
66384;SDS011;53426;55.872;37.462;2024-03-06T01:30:21;3.50;;;2.70;;
66384;SDS011;53426;55.872;37.462;2024-03-06T01:32:47;4.40;;;2.75;;
66384;SDS011;53426;55.872;37.462;2024-03-06T01:35:14;4.55;;;2.63;;
66384;SDS011;53426;55.872;37.462;2024-03-06T01:37:41;3.28;;;2.85;;
66384;SDS011;53426;55.872;37.462;2024-03-06T01:40:07;2.58;;;2.38;;
66384;SDS011;53426;55.872;37.462;2024-03-06T01:42:35;3.33;;;2.47;;
66384;SDS011;53426;55.872;37.462;2024-03-06T01:47:57;4.30;;;3.15;;
66384;SDS011;53426;55.872;37.462;2024-03-06T01:50:24;3.42;;;2.20;;
66384;SDS011;53426;55.872;37.462;2024-03-06T01:52:50;7.30;;;2.50;;
66384;SDS011;53426;55.872;37.462;2024-03-06T01:58:09;6.32;;;2.30;;
66384;SDS011;53426;55.872;37.462;2024-03-06T02:00:35;3.13;;;2.35;;
66384;SDS011;53426;55.872;37.462;2024-03-06T02:03:02;5.72;;;2.28;;
66384;SDS011;53426;55.872;37.462;2024-03-06T02:05:28;3.38;;;2.50;;
66384;SDS011;53426;55.872;37.462;2024-03-06T02:07:57;3.13;;;2.75;;
66384;SDS011;53426;55.872;37.462;2024-03-06T02:24:12;5.68;;;2.92;;
66384;SDS011;53426;55.872;37.462;2024-03-06T02:26:43;5.85;;;3.05;;
66384;SDS011;53426;55.872;37.462;2024-03-06T02:29:11;4.25;;;2.90;;
66384;SDS011;53426;55.872;37.462;2024-03-06T02:31:43;7.38;;;3.25;;
66384;SDS011;53426;55.872;37.462;2024-03-06T02:34:11;3.30;;;2.67;;
66384;SDS011;53426;55.872;37.462;2024-03-06T02:39:48;3.40;;;2.50;;
66384;SDS011;53426;55.872;37.462;2024-03-06T02:45:32;3.35;;;2.83;;
66384;SDS011;53426;55.872;37.462;2024-03-06T02:47:59;2.75;;;2.47;;
66384;SDS011;53426;55.872;37.462;2024-03-06T02:50:31;5.43;;;3.00;;
66384;SDS011;53426;55.872;37.462;2024-03-06T02:53:03;3.63;;;2.60;;
66384;SDS011;53426;55.872;37.462;2024-03-06T03:16:17;3.05;;;2.33;;
66384;SDS011;53426;55.872;37.462;2024-03-06T03:18:44;5.53;;;3.17;;
66384;SDS011;53426;55.872;37.462;2024-03-06T03:24:11;5.50;;;3.00;;
66384;SDS011;53426;55.872;37.462;2024-03-06T03:26:49;5.03;;;2.60;;
66384;SDS011;53426;55.872;37.462;2024-03-06T03:29:18;5.63;;;3.33;;
66384;SDS011;53426;55.872;37.462;2024-03-06T03:31:47;15.20;;;3.28;;
66384;SDS011;53426;55.872;37.462;2024-03-06T03:34:15;3.40;;;2.83;;
66384;SDS011;53426;55.872;37.462;2024-03-06T03:36:41;4.05;;;2.92;;
66384;SDS011;53426;55.872;37.462;2024-03-06T03:39:08;4.93;;;2.72;;
66384;SDS011;53426;55.872;37.462;2024-03-06T03:41:44;7.03;;;3.10;;
66384;SDS011;53426;55.872;37.462;2024-03-06T03:44:13;3.20;;;2.38;;
66384;SDS011;53426;55.872;37.462;2024-03-06T03:49:45;5.38;;;2.22;;
66384;SDS011;53426;55.872;37.462;2024-03-06T03:52:12;6.78;;;2.72;;
66384;SDS011;53426;55.872;37.462;2024-03-06T03:54:41;4.13;;;2.70;;
66384;SDS011;53426;55.872;37.462;2024-03-06T03:57:10;5.78;;;2.55;;
66384;SDS011;53426;55.872;37.462;2024-03-06T04:05:38;2.42;;;2.22;;
66384;SDS011;53426;55.872;37.462;2024-03-06T04:08:04;2.65;;;2.30;;
66384;SDS011;53426;55.872;37.462;2024-03-06T04:10:34;4.05;;;2.95;;
66384;SDS011;53426;55.872;37.462;2024-03-06T04:13:00;4.35;;;2.78;;
66384;SDS011;53426;55.872;37.462;2024-03-06T04:15:29;5.32;;;3.03;;
66384;SDS011;53426;55.872;37.462;2024-03-06T04:17:56;6.18;;;2.88;;
66384;SDS011;53426;55.872;37.462;2024-03-06T04:20:21;6.38;;;3.38;;
66384;SDS011;53426;55.872;37.462;2024-03-06T04:22:47;4.63;;;2.95;;
66384;SDS011;53426;55.872;37.462;2024-03-06T04:25:17;3.83;;;3.03;;
66384;SDS011;53426;55.872;37.462;2024-03-06T04:27:45;4.05;;;3.25;;
66384;SDS011;53426;55.872;37.462;2024-03-06T04:30:14;4.97;;;3.50;;
66384;SDS011;53426;55.872;37.462;2024-03-06T04:32:41;6.13;;;3.10;;
66384;SDS011;53426;55.872;37.462;2024-03-06T04:35:14;6.03;;;2.78;;
66384;SDS011;53426;55.872;37.462;2024-03-06T04:37:42;7.65;;;4.00;;
66384;SDS011;53426;55.872;37.462;2024-03-06T04:40:10;5.53;;;3.30;;
66384;SDS011;53426;55.872;37.462;2024-03-06T04:42:41;7.10;;;3.80;;
66384;SDS011;53426;55.872;37.462;2024-03-06T04:45:11;5.47;;;3.47;;
66384;SDS011;53426;55.872;37.462;2024-03-06T04:50:57;5.88;;;3.53;;
66384;SDS011;53426;55.872;37.462;2024-03-06T04:53:23;11.32;;;3.58;;
66384;SDS011;53426;55.872;37.462;2024-03-06T04:55:49;4.82;;;3.22;;
66384;SDS011;53426;55.872;37.462;2024-03-06T04:58:17;11.02;;;3.90;;
66384;SDS011;53426;55.872;37.462;2024-03-06T05:00:43;4.95;;;3.72;;
66384;SDS011;53426;55.872;37.462;2024-03-06T05:22:13;6.65;;;3.55;;
66384;SDS011;53426;55.872;37.462;2024-03-06T05:24:44;5.45;;;3.35;;
66384;SDS011;53426;55.872;37.462;2024-03-06T05:27:10;7.88;;;3.72;;
66384;SDS011;53426;55.872;37.462;2024-03-06T05:32:12;8.85;;;3.05;;
66384;SDS011;53426;55.872;37.462;2024-03-06T05:34:38;5.75;;;2.85;;
66384;SDS011;53426;55.872;37.462;2024-03-06T05:37:04;5.28;;;3.20;;
66384;SDS011;53426;55.872;37.462;2024-03-06T05:43:02;5.57;;;3.15;;
66384;SDS011;53426;55.872;37.462;2024-03-06T05:45:29;5.13;;;3.17;;
66384;SDS011;53426;55.872;37.462;2024-03-06T05:47:58;3.90;;;3.28;;
66384;SDS011;53426;55.872;37.462;2024-03-06T05:50:24;6.85;;;3.03;;
66384;SDS011;53426;55.872;37.462;2024-03-06T05:52:53;11.82;;;3.72;;
66384;SDS011;53426;55.872;37.462;2024-03-06T05:55:19;5.75;;;3.08;;
66384;SDS011;53426;55.872;37.462;2024-03-06T05:57:49;5.03;;;3.33;;
66384;SDS011;53426;55.872;37.462;2024-03-06T06:00:19;8.73;;;3.58;;
66384;SDS011;53426;55.872;37.462;2024-03-06T06:03:04;3.85;;;2.88;;
66384;SDS011;53426;55.872;37.462;2024-03-06T06:05:30;5.90;;;3.17;;
66384;SDS011;53426;55.872;37.462;2024-03-06T06:07:56;5.60;;;3.05;;
66384;SDS011;53426;55.872;37.462;2024-03-06T06:10:22;3.90;;;3.47;;
66384;SDS011;53426;55.872;37.462;2024-03-06T06:12:49;11.25;;;4.10;;
66384;SDS011;53426;55.872;37.462;2024-03-06T06:15:15;12.27;;;3.42;;
66384;SDS011;53426;55.872;37.462;2024-03-06T06:20:33;6.82;;;3.83;;
66384;SDS011;53426;55.872;37.462;2024-03-06T06:23:12;10.65;;;3.63;;
66384;SDS011;53426;55.872;37.462;2024-03-06T06:25:39;8.65;;;3.03;;
66384;SDS011;53426;55.872;37.462;2024-03-06T06:28:09;4.65;;;3.15;;
66384;SDS011;53426;55.872;37.462;2024-03-06T06:30:36;14.68;;;3.72;;
66384;SDS011;53426;55.872;37.462;2024-03-06T06:33:05;5.07;;;3.38;;
66384;SDS011;53426;55.872;37.462;2024-03-06T06:35:31;5.63;;;3.10;;
66384;SDS011;53426;55.872;37.462;2024-03-06T06:41:24;6.43;;;3.60;;
66384;SDS011;53426;55.872;37.462;2024-03-06T06:43:51;6.20;;;3.55;;
66384;SDS011;53426;55.872;37.462;2024-03-06T06:46:18;12.32;;;3.80;;
66384;SDS011;53426;55.872;37.462;2024-03-06T06:48:47;11.80;;;4.63;;
66384;SDS011;53426;55.872;37.462;2024-03-06T06:51:23;12.93;;;3.17;;
66384;SDS011;53426;55.872;37.462;2024-03-06T06:53:58;16.50;;;3.70;;
66384;SDS011;53426;55.872;37.462;2024-03-06T06:56:27;10.30;;;3.70;;
66384;SDS011;53426;55.872;37.462;2024-03-06T06:59:01;4.47;;;3.42;;
66384;SDS011;53426;55.872;37.462;2024-03-06T07:01:30;6.07;;;3.08;;
66384;SDS011;53426;55.872;37.462;2024-03-06T07:06:50;14.10;;;3.05;;
66384;SDS011;53426;55.872;37.462;2024-03-06T07:14:35;16.17;;;3.70;;
66384;SDS011;53426;55.872;37.462;2024-03-06T07:17:03;11.82;;;3.33;;
66384;SDS011;53426;55.872;37.462;2024-03-06T07:19:35;9.45;;;3.60;;
66384;SDS011;53426;55.872;37.462;2024-03-06T07:22:03;5.60;;;3.30;;
66384;SDS011;53426;55.872;37.462;2024-03-06T07:24:29;11.25;;;3.30;;
66384;SDS011;53426;55.872;37.462;2024-03-06T07:27:22;7.45;;;3.53;;
66384;SDS011;53426;55.872;37.462;2024-03-06T07:36:02;13.70;;;4.53;;
66384;SDS011;53426;55.872;37.462;2024-03-06T07:38:28;18.08;;;4.35;;
66384;SDS011;53426;55.872;37.462;2024-03-06T07:40:54;10.82;;;4.22;;
66384;SDS011;53426;55.872;37.462;2024-03-06T07:43:20;17.25;;;4.00;;
66384;SDS011;53426;55.872;37.462;2024-03-06T07:45:46;24.60;;;4.63;;
66384;SDS011;53426;55.872;37.462;2024-03-06T07:49:02;12.48;;;3.83;;
66384;SDS011;53426;55.872;37.462;2024-03-06T07:53:10;13.15;;;4.55;;
66384;SDS011;53426;55.872;37.462;2024-03-06T07:55:36;10.55;;;4.20;;
66384;SDS011;53426;55.872;37.462;2024-03-06T07:58:04;22.73;;;3.80;;
66384;SDS011;53426;55.872;37.462;2024-03-06T08:00:30;7.03;;;3.78;;
66384;SDS011;53426;55.872;37.462;2024-03-06T08:02:56;13.02;;;4.40;;
66384;SDS011;53426;55.872;37.462;2024-03-06T08:05:23;15.45;;;3.80;;
66384;SDS011;53426;55.872;37.462;2024-03-06T08:07:49;8.52;;;3.67;;
66384;SDS011;53426;55.872;37.462;2024-03-06T08:10:15;7.50;;;3.72;;
66384;SDS011;53426;55.872;37.462;2024-03-06T08:12:43;11.98;;;3.17;;
66384;SDS011;53426;55.872;37.462;2024-03-06T08:15:11;6.90;;;2.45;;
66384;SDS011;53426;55.872;37.462;2024-03-06T08:17:38;12.23;;;2.90;;
66384;SDS011;53426;55.872;37.462;2024-03-06T08:20:07;8.32;;;3.08;;
66384;SDS011;53426;55.872;37.462;2024-03-06T08:22:34;7.50;;;3.60;;
66384;SDS011;53426;55.872;37.462;2024-03-06T08:25:07;7.30;;;3.38;;
66384;SDS011;53426;55.872;37.462;2024-03-06T08:27:35;6.47;;;3.70;;
66384;SDS011;53426;55.872;37.462;2024-03-06T08:30:05;11.50;;;3.58;;
66384;SDS011;53426;55.872;37.462;2024-03-06T08:32:32;19.77;;;4.68;;
66384;SDS011;53426;55.872;37.462;2024-03-06T08:37:46;8.85;;;4.07;;
66384;SDS011;53426;55.872;37.462;2024-03-06T08:40:16;6.25;;;4.15;;
66384;SDS011;53426;55.872;37.462;2024-03-06T08:42:51;12.45;;;4.53;;
66384;SDS011;53426;55.872;37.462;2024-03-06T08:45:41;7.22;;;4.18;;
66384;SDS011;53426;55.872;37.462;2024-03-06T08:48:08;5.70;;;4.13;;
66384;SDS011;53426;55.872;37.462;2024-03-06T08:50:57;12.32;;;4.22;;
66384;SDS011;53426;55.872;37.462;2024-03-06T08:53:31;5.18;;;3.67;;
66384;SDS011;53426;55.872;37.462;2024-03-06T08:56:15;8.95;;;4.40;;
66384;SDS011;53426;55.872;37.462;2024-03-06T08:58:50;9.60;;;3.88;;
66384;SDS011;53426;55.872;37.462;2024-03-06T09:01:19;7.82;;;3.95;;
66384;SDS011;53426;55.872;37.462;2024-03-06T09:03:44;7.30;;;4.30;;
66384;SDS011;53426;55.872;37.462;2024-03-06T09:06:13;18.42;;;4.20;;
66384;SDS011;53426;55.872;37.462;2024-03-06T09:08:39;15.35;;;4.38;;
66384;SDS011;53426;55.872;37.462;2024-03-06T09:13:56;11.23;;;4.93;;
66384;SDS011;53426;55.872;37.462;2024-03-06T09:20:38;6.72;;;4.10;;
66384;SDS011;53426;55.872;37.462;2024-03-06T09:23:05;14.32;;;4.55;;
66384;SDS011;53426;55.872;37.462;2024-03-06T09:36:48;6.07;;;4.13;;
66384;SDS011;53426;55.872;37.462;2024-03-06T09:39:15;11.57;;;4.68;;
66384;SDS011;53426;55.872;37.462;2024-03-06T09:44:47;15.15;;;4.60;;
66384;SDS011;53426;55.872;37.462;2024-03-06T09:47:14;6.20;;;3.60;;
66384;SDS011;53426;55.872;37.462;2024-03-06T09:49:48;6.25;;;3.47;;
66384;SDS011;53426;55.872;37.462;2024-03-06T09:52:17;5.15;;;3.40;;
66384;SDS011;53426;55.872;37.462;2024-03-06T09:54:43;8.73;;;2.95;;
66384;SDS011;53426;55.872;37.462;2024-03-06T09:57:29;5.35;;;2.40;;
66384;SDS011;53426;55.872;37.462;2024-03-06T09:59:56;3.92;;;2.80;;
66384;SDS011;53426;55.872;37.462;2024-03-06T10:02:34;3.55;;;2.97;;
66384;SDS011;53426;55.872;37.462;2024-03-06T10:05:04;8.93;;;2.78;;
66384;SDS011;53426;55.872;37.462;2024-03-06T10:07:31;3.95;;;2.63;;
66384;SDS011;53426;55.872;37.462;2024-03-06T10:09:57;4.13;;;2.70;;
66384;SDS011;53426;55.872;37.462;2024-03-06T10:12:23;4.75;;;2.95;;
66384;SDS011;53426;55.872;37.462;2024-03-06T10:14:51;7.55;;;2.75;;
66384;SDS011;53426;55.872;37.462;2024-03-06T10:17:19;10.20;;;2.70;;
66384;SDS011;53426;55.872;37.462;2024-03-06T10:19:52;3.08;;;2.28;;
66384;SDS011;53426;55.872;37.462;2024-03-06T10:22:22;13.32;;;2.38;;
66384;SDS011;53426;55.872;37.462;2024-03-06T10:25:00;8.70;;;2.40;;
66384;SDS011;53426;55.872;37.462;2024-03-06T10:27:26;4.03;;;2.30;;
66384;SDS011;53426;55.872;37.462;2024-03-06T10:30:02;2.08;;;1.90;;
66384;SDS011;53426;55.872;37.462;2024-03-06T10:32:30;9.93;;;2.53;;
66384;SDS011;53426;55.872;37.462;2024-03-06T10:34:56;2.83;;;2.20;;
66384;SDS011;53426;55.872;37.462;2024-03-06T10:37:22;4.78;;;2.60;;
66384;SDS011;53426;55.872;37.462;2024-03-06T10:40:03;3.65;;;2.20;;
66384;SDS011;53426;55.872;37.462;2024-03-06T10:42:32;5.70;;;2.25;;
66384;SDS011;53426;55.872;37.462;2024-03-06T10:45:08;5.07;;;2.63;;
66384;SDS011;53426;55.872;37.462;2024-03-06T10:47:40;3.75;;;1.98;;
66384;SDS011;53426;55.872;37.462;2024-03-06T10:50:13;6.47;;;2.50;;
66384;SDS011;53426;55.872;37.462;2024-03-06T10:52:45;5.93;;;2.55;;
66384;SDS011;53426;55.872;37.462;2024-03-06T10:55:15;8.55;;;2.72;;
66384;SDS011;53426;55.872;37.462;2024-03-06T10:57:48;12.73;;;3.00;;
66384;SDS011;53426;55.872;37.462;2024-03-06T11:00:19;3.35;;;2.72;;
66384;SDS011;53426;55.872;37.462;2024-03-06T11:02:50;5.03;;;2.88;;
66384;SDS011;53426;55.872;37.462;2024-03-06T11:05:21;4.75;;;2.83;;
66384;SDS011;53426;55.872;37.462;2024-03-06T11:07:51;7.78;;;2.85;;
66384;SDS011;53426;55.872;37.462;2024-03-06T11:10:32;4.35;;;2.72;;
66384;SDS011;53426;55.872;37.462;2024-03-06T11:13:03;4.43;;;2.85;;
66384;SDS011;53426;55.872;37.462;2024-03-06T11:15:53;6.85;;;3.03;;
66384;SDS011;53426;55.872;37.462;2024-03-06T11:28:18;6.20;;;2.55;;
66384;SDS011;53426;55.872;37.462;2024-03-06T11:30:47;7.05;;;2.85;;
66384;SDS011;53426;55.872;37.462;2024-03-06T11:33:28;5.78;;;2.63;;
66384;SDS011;53426;55.872;37.462;2024-03-06T11:36:16;3.97;;;2.70;;
66384;SDS011;53426;55.872;37.462;2024-03-06T11:38:52;8.35;;;2.80;;
66384;SDS011;53426;55.872;37.462;2024-03-06T11:41:21;5.55;;;2.63;;
66384;SDS011;53426;55.872;37.462;2024-03-06T11:43:49;7.25;;;3.10;;
66384;SDS011;53426;55.872;37.462;2024-03-06T11:51:56;4.97;;;2.20;;
66384;SDS011;53426;55.872;37.462;2024-03-06T11:54:33;4.25;;;2.28;;
66384;SDS011;53426;55.872;37.462;2024-03-06T11:57:01;5.25;;;1.92;;
66384;SDS011;53426;55.872;37.462;2024-03-06T11:59:29;3.28;;;1.90;;
66384;SDS011;53426;55.872;37.462;2024-03-06T12:02:04;8.32;;;2.40;;
66384;SDS011;53426;55.872;37.462;2024-03-06T12:04:31;5.40;;;2.53;;
66384;SDS011;53426;55.872;37.462;2024-03-06T12:07:00;4.47;;;2.30;;
66384;SDS011;53426;55.872;37.462;2024-03-06T12:12:34;3.17;;;1.80;;
66384;SDS011;53426;55.872;37.462;2024-03-06T12:15:03;5.57;;;2.00;;
66384;SDS011;53426;55.872;37.462;2024-03-06T12:17:31;4.13;;;2.33;;
66384;SDS011;53426;55.872;37.462;2024-03-06T12:20:00;5.47;;;2.20;;
66384;SDS011;53426;55.872;37.462;2024-03-06T12:22:45;8.00;;;2.10;;
66384;SDS011;53426;55.872;37.462;2024-03-06T12:25:20;7.05;;;2.30;;
66384;SDS011;53426;55.872;37.462;2024-03-06T12:27:51;2.85;;;2.40;;
66384;SDS011;53426;55.872;37.462;2024-03-06T12:30:21;10.63;;;2.22;;
66384;SDS011;53426;55.872;37.462;2024-03-06T12:33:01;3.25;;;2.40;;
66384;SDS011;53426;55.872;37.462;2024-03-06T12:35:33;6.28;;;2.75;;
66384;SDS011;53426;55.872;37.462;2024-03-06T12:40:51;6.20;;;2.40;;
66384;SDS011;53426;55.872;37.462;2024-03-06T12:43:17;7.28;;;2.45;;
66384;SDS011;53426;55.872;37.462;2024-03-06T12:45:43;4.22;;;2.05;;
66384;SDS011;53426;55.872;37.462;2024-03-06T12:48:09;4.63;;;2.10;;
66384;SDS011;53426;55.872;37.462;2024-03-06T12:50:39;7.53;;;2.25;;
66384;SDS011;53426;55.872;37.462;2024-03-06T12:53:14;2.13;;;1.90;;
66384;SDS011;53426;55.872;37.462;2024-03-06T12:55:40;2.53;;;1.55;;
66384;SDS011;53426;55.872;37.462;2024-03-06T12:58:12;7.35;;;1.83;;
66384;SDS011;53426;55.872;37.462;2024-03-06T13:00:40;1.80;;;1.70;;
66384;SDS011;53426;55.872;37.462;2024-03-06T13:03:06;4.18;;;1.40;;
66384;SDS011;53426;55.872;37.462;2024-03-06T13:05:33;4.40;;;1.90;;
66384;SDS011;53426;55.872;37.462;2024-03-06T13:11:01;3.67;;;1.40;;
66384;SDS011;53426;55.872;37.462;2024-03-06T13:13:29;3.85;;;1.67;;
66384;SDS011;53426;55.872;37.462;2024-03-06T13:15:58;1.60;;;1.38;;
66384;SDS011;53426;55.872;37.462;2024-03-06T13:18:25;4.75;;;1.88;;
66384;SDS011;53426;55.872;37.462;2024-03-06T13:20:54;1.92;;;1.63;;
66384;SDS011;53426;55.872;37.462;2024-03-06T13:23:42;2.00;;;1.80;;
66384;SDS011;53426;55.872;37.462;2024-03-06T13:26:11;6.07;;;1.60;;
66384;SDS011;53426;55.872;37.462;2024-03-06T13:28:41;8.05;;;2.10;;
66384;SDS011;53426;55.872;37.462;2024-03-06T13:31:07;2.35;;;1.90;;
66384;SDS011;53426;55.872;37.462;2024-03-06T13:36:37;2.95;;;2.05;;
66384;SDS011;53426;55.872;37.462;2024-03-06T13:46:11;13.30;;;2.75;;
66384;SDS011;53426;55.872;37.462;2024-03-06T13:49:07;6.53;;;2.70;;
66384;SDS011;53426;55.872;37.462;2024-03-06T13:52:07;4.20;;;2.50;;
66384;SDS011;53426;55.872;37.462;2024-03-06T13:58:41;7.32;;;2.40;;
66384;SDS011;53426;55.872;37.462;2024-03-06T14:01:09;2.80;;;2.15;;
66384;SDS011;53426;55.872;37.462;2024-03-06T14:06:58;2.78;;;2.30;;
66384;SDS011;53426;55.872;37.462;2024-03-06T14:09:25;8.50;;;2.20;;
66384;SDS011;53426;55.872;37.462;2024-03-06T14:11:52;4.35;;;2.13;;
66384;SDS011;53426;55.872;37.462;2024-03-06T14:14:19;2.88;;;2.00;;
66384;SDS011;53426;55.872;37.462;2024-03-06T14:17:04;3.47;;;1.95;;
66384;SDS011;53426;55.872;37.462;2024-03-06T14:19:30;3.17;;;2.30;;
66384;SDS011;53426;55.872;37.462;2024-03-06T14:21:56;3.15;;;2.00;;
66384;SDS011;53426;55.872;37.462;2024-03-06T14:24:22;5.38;;;2.08;;
66384;SDS011;53426;55.872;37.462;2024-03-06T14:26:48;6.20;;;2.25;;
66384;SDS011;53426;55.872;37.462;2024-03-06T14:29:15;8.48;;;2.30;;
66384;SDS011;53426;55.872;37.462;2024-03-06T14:31:41;11.57;;;2.30;;
66384;SDS011;53426;55.872;37.462;2024-03-06T14:34:33;7.65;;;2.10;;
66384;SDS011;53426;55.872;37.462;2024-03-06T14:37:00;11.63;;;2.60;;
66384;SDS011;53426;55.872;37.462;2024-03-06T14:39:26;5.07;;;2.60;;
66384;SDS011;53426;55.872;37.462;2024-03-06T14:41:56;3.15;;;2.60;;
66384;SDS011;53426;55.872;37.462;2024-03-06T14:44:30;3.50;;;2.42;;
66384;SDS011;53426;55.872;37.462;2024-03-06T14:46:56;4.93;;;2.25;;
66384;SDS011;53426;55.872;37.462;2024-03-06T14:49:23;7.95;;;2.83;;
66384;SDS011;53426;55.872;37.462;2024-03-06T14:51:52;4.20;;;1.92;;
66384;SDS011;53426;55.872;37.462;2024-03-06T14:57:29;1.67;;;1.17;;
66384;SDS011;53426;55.872;37.462;2024-03-06T15:00:21;1.92;;;1.50;;
66384;SDS011;53426;55.872;37.462;2024-03-06T15:02:48;3.00;;;1.80;;
66384;SDS011;53426;55.872;37.462;2024-03-06T15:05:34;6.78;;;1.77;;
66384;SDS011;53426;55.872;37.462;2024-03-06T15:08:04;3.38;;;1.67;;
66384;SDS011;53426;55.872;37.462;2024-03-06T15:13:11;2.38;;;1.45;;
66384;SDS011;53426;55.872;37.462;2024-03-06T15:15:38;4.63;;;1.85;;
66384;SDS011;53426;55.872;37.462;2024-03-06T15:18:21;10.38;;;1.95;;
66384;SDS011;53426;55.872;37.462;2024-03-06T15:20:50;10.55;;;1.80;;
66384;SDS011;53426;55.872;37.462;2024-03-06T15:23:28;2.72;;;2.00;;
66384;SDS011;53426;55.872;37.462;2024-03-06T15:29:23;3.83;;;2.10;;
66384;SDS011;53426;55.872;37.462;2024-03-06T15:35:38;7.32;;;1.92;;
66384;SDS011;53426;55.872;37.462;2024-03-06T15:38:04;8.43;;;2.35;;
66384;SDS011;53426;55.872;37.462;2024-03-06T15:40:32;9.15;;;2.45;;
66384;SDS011;53426;55.872;37.462;2024-03-06T15:42:58;7.30;;;2.40;;
66384;SDS011;53426;55.872;37.462;2024-03-06T15:45:27;1.85;;;1.73;;
66384;SDS011;53426;55.872;37.462;2024-03-06T15:48:22;4.43;;;1.63;;
66384;SDS011;53426;55.872;37.462;2024-03-06T15:51:06;5.10;;;2.13;;
66384;SDS011;53426;55.872;37.462;2024-03-06T15:53:34;8.30;;;2.22;;
66384;SDS011;53426;55.872;37.462;2024-03-06T15:56:00;3.08;;;2.50;;
66384;SDS011;53426;55.872;37.462;2024-03-06T15:58:38;16.60;;;3.40;;
66384;SDS011;53426;55.872;37.462;2024-03-06T16:01:04;9.50;;;3.05;;
66384;SDS011;53426;55.872;37.462;2024-03-06T16:03:31;18.55;;;3.10;;
66384;SDS011;53426;55.872;37.462;2024-03-06T16:06:18;14.93;;;5.07;;
66384;SDS011;53426;55.872;37.462;2024-03-06T16:08:43;9.63;;;2.97;;
66384;SDS011;53426;55.872;37.462;2024-03-06T16:11:09;5.45;;;2.50;;
66384;SDS011;53426;55.872;37.462;2024-03-06T16:13:35;5.30;;;2.72;;
66384;SDS011;53426;55.872;37.462;2024-03-06T16:16:10;10.77;;;2.65;;
66384;SDS011;53426;55.872;37.462;2024-03-06T16:21:42;5.93;;;3.00;;
66384;SDS011;53426;55.872;37.462;2024-03-06T16:24:09;10.88;;;3.20;;
66384;SDS011;53426;55.872;37.462;2024-03-06T16:26:35;9.25;;;2.88;;
66384;SDS011;53426;55.872;37.462;2024-03-06T16:29:03;3.83;;;2.90;;
66384;SDS011;53426;55.872;37.462;2024-03-06T16:31:29;13.63;;;3.08;;
66384;SDS011;53426;55.872;37.462;2024-03-06T16:33:58;18.63;;;4.28;;
66384;SDS011;53426;55.872;37.462;2024-03-06T16:36:24;10.85;;;3.90;;
66384;SDS011;53426;55.872;37.462;2024-03-06T16:46:35;9.75;;;3.50;;
66384;SDS011;53426;55.872;37.462;2024-03-06T16:53:11;9.73;;;3.40;;
66384;SDS011;53426;55.872;37.462;2024-03-06T16:55:51;6.30;;;3.33;;
66384;SDS011;53426;55.872;37.462;2024-03-06T16:58:42;8.20;;;5.10;;
66384;SDS011;53426;55.872;37.462;2024-03-06T17:01:18;13.80;;;5.05;;
66384;SDS011;53426;55.872;37.462;2024-03-06T17:03:49;23.35;;;6.05;;
66384;SDS011;53426;55.872;37.462;2024-03-06T17:06:16;15.45;;;5.65;;
66384;SDS011;53426;55.872;37.462;2024-03-06T17:11:51;27.02;;;5.95;;
66384;SDS011;53426;55.872;37.462;2024-03-06T17:14:26;18.13;;;5.32;;
66384;SDS011;53426;55.872;37.462;2024-03-06T17:16:52;20.95;;;5.55;;
66384;SDS011;53426;55.872;37.462;2024-03-06T17:19:18;20.48;;;5.93;;
66384;SDS011;53426;55.872;37.462;2024-03-06T17:22:03;20.50;;;6.00;;
66384;SDS011;53426;55.872;37.462;2024-03-06T17:24:32;18.00;;;5.55;;
66384;SDS011;53426;55.872;37.462;2024-03-06T17:26:58;27.30;;;5.22;;
66384;SDS011;53426;55.872;37.462;2024-03-06T17:29:30;25.13;;;5.60;;
66384;SDS011;53426;55.872;37.462;2024-03-06T17:31:56;12.88;;;5.53;;
66384;SDS011;53426;55.872;37.462;2024-03-06T17:34:22;15.98;;;6.72;;
66384;SDS011;53426;55.872;37.462;2024-03-06T17:40:54;10.48;;;5.80;;
66384;SDS011;53426;55.872;37.462;2024-03-06T17:45:47;18.13;;;6.85;;
66384;SDS011;53426;55.872;37.462;2024-03-06T17:48:17;26.08;;;6.68;;
66384;SDS011;53426;55.872;37.462;2024-03-06T17:50:43;16.30;;;6.95;;
66384;SDS011;53426;55.872;37.462;2024-03-06T17:53:12;18.30;;;6.82;;
66384;SDS011;53426;55.872;37.462;2024-03-06T18:00:05;23.40;;;6.80;;
66384;SDS011;53426;55.872;37.462;2024-03-06T18:02:37;21.27;;;6.38;;
66384;SDS011;53426;55.872;37.462;2024-03-06T18:05:03;14.13;;;5.97;;
66384;SDS011;53426;55.872;37.462;2024-03-06T18:07:33;19.83;;;6.03;;
66384;SDS011;53426;55.872;37.462;2024-03-06T18:09:59;23.25;;;7.38;;
66384;SDS011;53426;55.872;37.462;2024-03-06T18:16:15;30.75;;;6.63;;
66384;SDS011;53426;55.872;37.462;2024-03-06T18:19:06;30.75;;;6.93;;
66384;SDS011;53426;55.872;37.462;2024-03-06T18:21:42;26.63;;;6.25;;
66384;SDS011;53426;55.872;37.462;2024-03-06T18:24:13;29.63;;;6.03;;
66384;SDS011;53426;55.872;37.462;2024-03-06T18:26:40;17.10;;;5.95;;
66384;SDS011;53426;55.872;37.462;2024-03-06T18:29:10;29.90;;;6.95;;
66384;SDS011;53426;55.872;37.462;2024-03-06T18:34:42;25.73;;;6.60;;
66384;SDS011;53426;55.872;37.462;2024-03-06T18:37:09;30.83;;;6.78;;
66384;SDS011;53426;55.872;37.462;2024-03-06T18:39:35;21.23;;;6.22;;
66384;SDS011;53426;55.872;37.462;2024-03-06T18:44:52;18.52;;;7.00;;
66384;SDS011;53426;55.872;37.462;2024-03-06T18:47:18;21.48;;;8.20;;
66384;SDS011;53426;55.872;37.462;2024-03-06T18:49:44;58.72;;;10.70;;
66384;SDS011;53426;55.872;37.462;2024-03-06T18:52:10;39.15;;;10.52;;